createdAt,value
2022-12-18T00:01:34.235Z,101878.66
2022-12-18T00:04:05.921Z,101880.84
2022-12-18T00:06:34.738Z,101890.84
2022-12-18T00:09:05.115Z,101893.88
2022-12-18T00:11:33.862Z,101900.50
2022-12-18T00:14:02.274Z,101904.63
2022-12-18T00:16:34.028Z,101906.78
2022-12-18T00:19:02.363Z,101916.94
2022-12-18T00:21:32.509Z,101920.78
2022-12-18T00:24:00.881Z,101919.69
2022-12-18T00:26:32.613Z,101909.53
2022-12-18T00:29:05.297Z,101928.44
2022-12-18T00:31:34.215Z,101934.34
2022-12-18T00:34:03.137Z,101920.00
2022-12-18T00:36:34.256Z,101947.22
2022-12-18T00:39:03.951Z,101951.50
2022-12-18T00:41:47.323Z,101949.72
2022-12-18T00:44:17.416Z,101949.09
2022-12-18T00:46:46.899Z,101938.09
2022-12-18T00:49:15.353Z,101953.72
2022-12-18T00:51:43.536Z,101950.03
2022-12-18T00:54:12.872Z,101953.53
2022-12-18T00:56:50.062Z,101954.47
2022-12-18T00:59:19.705Z,101960.25
2022-12-18T01:01:48.000Z,101955.75
2022-12-18T01:04:16.893Z,101921.63
2022-12-18T01:06:47.237Z,101970.13
2022-12-18T01:09:15.445Z,101967.19
2022-12-18T01:11:44.746Z,101971.09
2022-12-18T01:14:12.467Z,101969.34
2022-12-18T01:16:40.497Z,101969.25
2022-12-18T01:19:08.725Z,101954.53
2022-12-18T01:21:36.648Z,101965.88
2022-12-18T01:24:06.893Z,101979.88
2022-12-18T01:26:35.297Z,101979.34
2022-12-18T01:29:04.651Z,101983.97
2022-12-18T01:31:34.940Z,101967.53
2022-12-18T01:34:04.869Z,101986.13
2022-12-18T01:36:34.289Z,101982.25
2022-12-18T01:39:03.956Z,101973.56
2022-12-18T01:42:02.444Z,101976.19
2022-12-18T01:45:01.602Z,101995.03
2022-12-18T01:47:32.510Z,101993.22
2022-12-18T01:50:04.510Z,101991.19
2022-12-18T01:52:34.923Z,101994.16
2022-12-18T01:55:05.770Z,102000.50
2022-12-18T01:57:34.183Z,102001.13
2022-12-18T02:00:12.192Z,101994.41
2022-12-18T02:02:43.867Z,102011.78
2022-12-18T02:05:17.080Z,102011.78
2022-12-18T02:07:52.004Z,102011.75
2022-12-18T02:10:29.223Z,102009.28
2022-12-18T02:13:04.895Z,102007.28
2022-12-18T02:15:41.501Z,102005.03
2022-12-18T02:18:14.282Z,102007.16
2022-12-18T02:20:49.214Z,102012.03
2022-12-18T02:23:35.749Z,102009.84
2022-12-18T02:26:22.649Z,102019.97
2022-12-18T02:28:57.316Z,102036.25
2022-12-18T02:31:30.797Z,102027.16
2022-12-18T02:34:02.851Z,102036.78
2022-12-18T02:36:38.402Z,102029.16
2022-12-18T02:39:09.544Z,102034.13
2022-12-18T02:41:42.415Z,102029.00
2022-12-18T02:44:13.026Z,102024.91
2022-12-18T02:46:44.562Z,102040.13
2022-12-18T02:49:28.311Z,102037.44
2022-12-18T02:52:07.189Z,102040.56
2022-12-18T02:54:51.451Z,102021.22
2022-12-18T02:57:26.767Z,102037.50
2022-12-18T03:00:04.074Z,102022.06
2022-12-18T03:02:39.485Z,102038.78
2022-12-18T03:05:13.972Z,102030.41
2022-12-18T03:07:49.059Z,102031.09
2022-12-18T03:10:22.093Z,102030.28
2022-12-18T03:13:00.239Z,102054.34
2022-12-18T03:15:32.881Z,102055.00
2022-12-18T03:18:18.343Z,102065.88
2022-12-18T03:20:50.051Z,102062.28
2022-12-18T03:23:26.397Z,102053.41
2022-12-18T03:26:07.171Z,102058.78
2022-12-18T03:28:44.408Z,102065.44
2022-12-18T03:31:14.499Z,102060.31
2022-12-18T03:33:48.090Z,102058.47
2022-12-18T03:36:17.387Z,102065.31
2022-12-18T03:38:45.573Z,102072.16
2022-12-18T03:41:21.767Z,102067.81
2022-12-18T03:44:17.490Z,102057.59
2022-12-18T03:46:57.010Z,102067.34
2022-12-18T03:49:30.923Z,102077.09
2022-12-18T03:52:06.144Z,102082.94
2022-12-18T03:54:37.547Z,102082.75
2022-12-18T03:57:17.801Z,102081.72
2022-12-18T03:59:51.724Z,102080.72
2022-12-18T04:02:24.305Z,102084.34
2022-12-18T04:04:55.287Z,102092.72
2022-12-18T04:07:25.957Z,102093.00
2022-12-18T04:09:57.960Z,102098.72
2022-12-18T04:12:27.371Z,102102.34
2022-12-18T04:14:56.649Z,102107.97
2022-12-18T04:17:25.947Z,102098.41
2022-12-18T04:19:56.775Z,102109.09
2022-12-18T04:22:26.209Z,102114.53
2022-12-18T04:24:59.738Z,102111.16
2022-12-18T04:27:34.208Z,102122.06
2022-12-18T04:30:03.689Z,102126.34
2022-12-18T04:32:32.429Z,102137.41
2022-12-18T04:35:02.093Z,102130.50
2022-12-18T04:37:30.523Z,102141.03
2022-12-18T04:39:58.530Z,102150.91
2022-12-18T04:42:34.420Z,102155.69
2022-12-18T04:45:03.995Z,102163.88
2022-12-18T04:47:33.111Z,102163.03
2022-12-18T04:50:01.097Z,102168.47
2022-12-18T04:52:29.089Z,102174.59
2022-12-18T04:54:59.992Z,102183.53
2022-12-18T04:57:28.009Z,102182.63
2022-12-18T04:59:56.399Z,102188.88
2022-12-18T05:02:25.768Z,102191.19
2022-12-18T05:04:53.817Z,102193.84
2022-12-18T05:07:21.814Z,102195.78
2022-12-18T05:09:49.849Z,102189.34
2022-12-18T05:12:17.837Z,102200.00
2022-12-18T05:14:45.738Z,102197.72
2022-12-18T05:17:13.643Z,102198.59
2022-12-18T05:19:43.017Z,102197.09
2022-12-18T05:22:10.794Z,102206.19
2022-12-18T05:24:39.146Z,102212.34
2022-12-18T05:27:07.122Z,102211.66
2022-12-18T05:29:35.223Z,102228.59
2022-12-18T05:32:03.174Z,102228.78
2022-12-18T05:34:31.103Z,102229.75
2022-12-18T05:37:00.387Z,102233.41
2022-12-18T05:39:28.156Z,102235.16
2022-12-18T05:41:56.535Z,102233.50
2022-12-18T05:44:24.676Z,102248.00
2022-12-18T05:46:52.656Z,102245.13
2022-12-18T05:49:20.633Z,102246.28
2022-12-18T05:51:48.711Z,102243.84
2022-12-18T05:54:18.068Z,102242.03
2022-12-18T05:56:48.777Z,102246.75
2022-12-18T05:59:17.050Z,102248.63
2022-12-18T06:01:45.239Z,102261.25
2022-12-18T06:04:13.365Z,102261.47
2022-12-18T06:06:41.447Z,102262.41
2022-12-18T06:09:10.559Z,102263.34
2022-12-18T06:11:40.450Z,102269.56
2022-12-18T06:14:09.343Z,102268.91
2022-12-18T06:16:37.402Z,102272.44
2022-12-18T06:19:07.509Z,102282.25
2022-12-18T06:21:36.082Z,102278.81
2022-12-18T06:24:04.356Z,102281.38
2022-12-18T06:26:32.310Z,102281.47
2022-12-18T06:29:01.697Z,102295.63
2022-12-18T06:31:29.690Z,102302.00
2022-12-18T06:33:58.743Z,102302.03
2022-12-18T06:36:26.731Z,102306.56
2022-12-18T06:38:54.697Z,102308.25
2022-12-18T06:41:23.475Z,102302.09
2022-12-18T06:43:54.626Z,102310.13
2022-12-18T06:46:27.898Z,102318.06
2022-12-18T06:48:55.854Z,102321.47
2022-12-18T06:51:25.139Z,102332.16
2022-12-18T06:53:53.362Z,102326.75
2022-12-18T06:56:21.339Z,102339.13
2022-12-18T06:58:52.119Z,102332.13
2022-12-18T07:01:20.298Z,102331.09
2022-12-18T07:03:54.014Z,102339.56
2022-12-18T07:06:24.227Z,102324.16
2022-12-18T07:08:53.167Z,102347.47
2022-12-18T07:11:21.406Z,102345.13
2022-12-18T07:13:50.057Z,102349.16
2022-12-18T07:16:24.801Z,102353.66
2022-12-18T07:18:56.508Z,102351.94
2022-12-18T07:21:26.152Z,102330.44
2022-12-18T07:23:54.271Z,102359.41
2022-12-18T07:26:23.479Z,102361.31
2022-12-18T07:28:51.907Z,102361.34
2022-12-18T07:31:22.910Z,102379.47
2022-12-18T07:33:53.233Z,102381.00
2022-12-18T07:36:25.358Z,102383.31
2022-12-18T07:38:54.063Z,102398.72
2022-12-18T07:41:22.926Z,102398.31
2022-12-18T07:43:50.988Z,102386.00
2022-12-18T07:46:20.158Z,102391.38
2022-12-18T07:48:49.801Z,102406.66
2022-12-18T07:51:18.763Z,102394.09
2022-12-18T07:53:49.614Z,102396.91
2022-12-18T07:56:29.409Z,102388.53
2022-12-18T07:58:58.558Z,102384.25
2022-12-18T08:01:26.797Z,102384.69
2022-12-18T08:03:55.050Z,102384.22
2022-12-18T08:06:25.117Z,102390.06
2022-12-18T08:08:55.752Z,102384.75
2022-12-18T08:11:25.491Z,102390.84
2022-12-18T08:13:53.573Z,102392.41
2022-12-18T08:16:22.459Z,102402.47
2022-12-18T08:18:51.316Z,102405.28
2022-12-18T08:21:22.156Z,102401.44
2022-12-18T08:23:51.505Z,102409.53
2022-12-18T08:26:22.100Z,102413.69
2022-12-18T08:28:50.896Z,102413.50
2022-12-18T08:31:19.387Z,102425.22
2022-12-18T08:33:47.629Z,102422.06
2022-12-18T08:36:15.594Z,102423.56
2022-12-18T08:38:43.584Z,102426.66
2022-12-18T08:41:13.896Z,102423.94
2022-12-18T08:44:00.885Z,102431.50
2022-12-18T08:46:35.254Z,102423.66
2022-12-18T08:49:03.381Z,102419.84
2022-12-18T08:51:32.053Z,102416.09
2022-12-18T08:54:00.069Z,102416.50
2022-12-18T08:56:28.062Z,102409.13
2022-12-18T08:58:57.681Z,102422.56
2022-12-18T09:01:26.265Z,102425.44
2022-12-18T09:03:54.333Z,102426.25
2022-12-18T09:06:23.951Z,102427.69
2022-12-18T09:08:52.175Z,102426.31
2022-12-18T09:11:22.910Z,102430.00
2022-12-18T09:13:51.678Z,102422.66
2022-12-18T09:16:24.970Z,102418.66
2022-12-18T09:19:00.215Z,102416.03
2022-12-18T09:21:30.157Z,102429.38
2022-12-18T09:23:58.446Z,102416.22
2022-12-18T09:26:28.383Z,102416.56
2022-12-18T09:28:56.912Z,102411.50
2022-12-18T09:31:26.760Z,102406.28
2022-12-18T09:33:56.691Z,102415.25
2022-12-18T09:36:24.707Z,102417.88
2022-12-18T09:38:52.630Z,102418.38
2022-12-18T09:41:39.350Z,102422.50
2022-12-18T09:44:16.072Z,102424.59
2022-12-18T09:46:49.758Z,102427.59
2022-12-18T09:49:22.206Z,102419.00
2022-12-18T09:51:54.770Z,102422.22
2022-12-18T09:54:27.861Z,102431.78
2022-12-18T09:56:56.339Z,102437.72
2022-12-18T09:59:27.688Z,102432.56
2022-12-18T10:01:58.412Z,102430.84
2022-12-18T10:04:27.476Z,102429.72
2022-12-18T10:07:09.005Z,102434.06
2022-12-18T10:09:45.632Z,102434.09
2022-12-18T10:12:23.561Z,102438.13
2022-12-18T10:15:04.578Z,102440.50
2022-12-18T10:17:44.544Z,102430.63
2022-12-18T10:20:18.187Z,102429.38
2022-12-18T10:22:55.555Z,102435.53
2022-12-18T10:25:26.413Z,102436.31
2022-12-18T10:27:57.936Z,102430.50
2022-12-18T10:30:27.531Z,102433.19
2022-12-18T10:33:02.427Z,102426.53
2022-12-18T10:35:30.706Z,102426.25
2022-12-18T10:38:07.532Z,102429.41
2022-12-18T10:40:50.273Z,102441.72
2022-12-18T10:43:23.883Z,102441.19
2022-12-18T10:46:04.558Z,102442.53
2022-12-18T10:48:35.343Z,102448.06
2022-12-18T10:51:13.103Z,102449.09
2022-12-18T10:53:44.100Z,102452.00
2022-12-18T10:56:12.784Z,102448.81
2022-12-18T10:58:41.804Z,102456.69
2022-12-18T11:01:12.639Z,102449.41
2022-12-18T11:03:44.270Z,102450.94
2022-12-18T11:06:15.143Z,102442.59
2022-12-18T11:08:45.015Z,102440.03
2022-12-18T11:11:23.850Z,102447.16
2022-12-18T11:14:01.005Z,102442.66
2022-12-18T11:16:31.887Z,102435.69
2022-12-18T11:19:17.322Z,102440.78
2022-12-18T11:21:45.444Z,102434.66
2022-12-18T11:24:22.901Z,102429.91
2022-12-18T11:26:54.978Z,102429.25
2022-12-18T11:29:34.342Z,102434.00
2022-12-18T11:32:26.765Z,102418.38
2022-12-18T11:35:04.270Z,102418.59
2022-12-18T11:37:34.983Z,102411.50
2022-12-18T11:40:09.243Z,102417.75
2022-12-18T11:42:43.642Z,102417.97
2022-12-18T11:45:26.810Z,102416.38
2022-12-18T11:48:01.435Z,102416.66
2022-12-18T11:50:40.378Z,102401.31
2022-12-18T11:53:13.437Z,102413.22
2022-12-18T11:55:48.660Z,102419.59
2022-12-18T11:58:31.719Z,102421.06
2022-12-18T12:01:15.450Z,102420.75
2022-12-18T12:04:01.316Z,102414.19
2022-12-18T12:06:38.575Z,102417.56
2022-12-18T12:09:15.741Z,102424.91
2022-12-18T12:11:54.096Z,102426.22
2022-12-18T12:14:45.534Z,102435.97
2022-12-18T12:17:20.163Z,102427.38
2022-12-18T12:19:55.348Z,102433.06
2022-12-18T12:22:32.976Z,102438.97
2022-12-18T12:25:19.052Z,102432.75
2022-12-18T12:27:58.170Z,102441.25
2022-12-18T12:30:34.940Z,102431.34
2022-12-18T12:33:18.687Z,102426.47
2022-12-18T12:35:54.950Z,102410.66
2022-12-18T12:38:29.401Z,102410.88
2022-12-18T12:41:04.011Z,102416.63
2022-12-18T12:43:47.974Z,102407.56
2022-12-18T12:46:20.037Z,102405.41
2022-12-18T12:48:50.479Z,102407.44
2022-12-18T12:51:23.320Z,102408.72
2022-12-18T12:53:55.445Z,102413.44
2022-12-18T12:56:24.423Z,102412.25
2022-12-18T12:59:01.596Z,102416.72
2022-12-18T13:01:38.120Z,102425.06
2022-12-18T13:04:20.027Z,102431.00
2022-12-18T13:06:55.665Z,102437.97
2022-12-18T13:09:25.082Z,102444.63
2022-12-18T13:12:10.647Z,102448.44
2022-12-18T13:14:41.004Z,102447.09
2022-12-18T13:17:32.157Z,102452.13
2022-12-18T13:20:13.294Z,102460.31
2022-12-18T13:22:47.039Z,102452.91
2022-12-18T13:25:37.815Z,102461.47
2022-12-18T13:28:12.602Z,102462.06
2022-12-18T13:30:49.426Z,102463.19
2022-12-18T13:34:02.195Z,102481.31
2022-12-18T13:36:34.119Z,102464.09
2022-12-18T13:39:32.756Z,102483.44
2022-12-18T13:42:57.418Z,102489.25
2022-12-18T13:45:46.885Z,102484.25
2022-12-18T13:48:26.172Z,102489.50
2022-12-18T13:51:01.061Z,102487.22
2022-12-18T13:53:32.593Z,102490.66
2022-12-18T13:56:01.214Z,102477.69
2022-12-18T13:58:29.352Z,102486.41
2022-12-18T14:01:00.315Z,102490.38
2022-12-18T14:03:30.257Z,102488.81
2022-12-18T14:06:03.339Z,102490.66
2022-12-18T14:08:37.849Z,102494.44
2022-12-18T14:11:08.257Z,102496.19
2022-12-18T14:13:41.757Z,102495.22
2022-12-18T14:16:16.710Z,102490.94
2022-12-18T14:18:48.708Z,102503.31
2022-12-18T14:21:22.922Z,102510.06
2022-12-18T14:23:51.306Z,102507.91
2022-12-18T14:26:29.825Z,102507.25
2022-12-18T14:28:58.530Z,102514.41
2022-12-18T14:31:30.377Z,102508.25
2022-12-18T14:33:58.745Z,102512.09
2022-12-18T14:36:28.704Z,102515.88
2022-12-18T14:38:57.540Z,102504.50
2022-12-18T14:41:26.811Z,102516.69
2022-12-18T14:43:55.944Z,102523.31
2022-12-18T14:46:36.596Z,102525.81
2022-12-18T14:49:06.869Z,102534.69
2022-12-18T14:51:36.190Z,102532.88
2022-12-18T14:54:08.927Z,102537.72
2022-12-18T14:56:45.341Z,102537.56
2022-12-18T14:59:23.759Z,102543.75
2022-12-18T15:02:01.490Z,102541.13
2022-12-18T15:04:32.988Z,102551.25
2022-12-18T15:07:12.254Z,102544.41
2022-12-18T15:09:40.648Z,102546.94
2022-12-18T15:12:26.701Z,102549.78
2022-12-18T15:14:54.888Z,102561.41
2022-12-18T15:17:26.902Z,102557.88
2022-12-18T15:20:00.936Z,102567.97
2022-12-18T15:22:31.357Z,102565.75
2022-12-18T15:25:00.644Z,102566.13
2022-12-18T15:27:30.413Z,102568.16
2022-12-18T15:30:20.850Z,102566.13
2022-12-18T15:32:51.058Z,102573.84
2022-12-18T15:35:21.477Z,102567.25
2022-12-18T15:37:49.940Z,102558.47
2022-12-18T15:40:19.568Z,102575.31
2022-12-18T15:43:06.802Z,102572.84
2022-12-18T15:45:35.258Z,102577.66
2022-12-18T15:48:20.716Z,102580.19
2022-12-18T15:50:48.814Z,102583.69
2022-12-18T15:53:16.837Z,102581.22
2022-12-18T15:56:04.506Z,102580.63
2022-12-18T15:58:33.810Z,102589.72
2022-12-18T16:01:02.675Z,102602.19
2022-12-18T16:03:32.690Z,102602.50
2022-12-18T16:06:03.001Z,102602.69
2022-12-18T16:08:32.251Z,102615.16
2022-12-18T16:11:00.591Z,102617.69
2022-12-18T16:13:28.545Z,102619.81
2022-12-18T16:15:56.598Z,102624.69
2022-12-18T16:18:24.826Z,102619.31
2022-12-18T16:20:54.560Z,102614.75
2022-12-18T16:23:22.487Z,102624.41
2022-12-18T16:25:50.353Z,102621.44
2022-12-18T16:28:18.302Z,102622.59
2022-12-18T16:30:46.240Z,102629.72
2022-12-18T16:33:14.153Z,102635.19
2022-12-18T16:35:42.519Z,102629.88
2022-12-18T16:38:12.201Z,102640.94
2022-12-18T16:41:00.017Z,102641.28
2022-12-18T16:43:30.043Z,102643.19
2022-12-18T16:46:00.673Z,102637.75
2022-12-18T16:48:28.623Z,102635.91
2022-12-18T16:51:03.604Z,102622.75
2022-12-18T16:53:34.391Z,102621.88
2022-12-18T16:56:03.139Z,102628.91
2022-12-18T16:58:32.463Z,102629.41
2022-12-18T17:01:00.471Z,102638.44
2022-12-18T17:03:28.475Z,102640.75
2022-12-18T17:05:56.455Z,102642.28
2022-12-18T17:08:24.395Z,102652.56
2022-12-18T17:10:53.667Z,102659.22
2022-12-18T17:13:25.917Z,102663.03
2022-12-18T17:15:54.198Z,102663.84
2022-12-18T17:18:22.638Z,102682.69
2022-12-18T17:20:50.645Z,102686.25
2022-12-18T17:23:18.581Z,102686.97
2022-12-18T17:25:46.590Z,102693.31
2022-12-18T17:28:15.919Z,102684.38
2022-12-18T17:30:43.789Z,102690.34
2022-12-18T17:33:11.722Z,102699.88
2022-12-18T17:35:39.911Z,102687.44
2022-12-18T17:38:09.130Z,102691.91
2022-12-18T17:40:41.802Z,102698.25
2022-12-18T17:43:13.051Z,102693.78
2022-12-18T17:45:42.558Z,102686.53
2022-12-18T17:48:10.967Z,102693.97
2022-12-18T17:50:39.394Z,102693.25
2022-12-18T17:53:07.356Z,102684.13
2022-12-18T17:55:35.299Z,102682.19
2022-12-18T17:58:03.418Z,102685.06
2022-12-18T18:00:31.657Z,102689.56
2022-12-18T18:03:01.475Z,102695.03
2022-12-18T18:05:29.510Z,102686.09
2022-12-18T18:07:57.465Z,102679.94
2022-12-18T18:10:25.384Z,102683.56
2022-12-18T18:13:10.785Z,102687.34
2022-12-18T18:15:40.779Z,102687.44
2022-12-18T18:18:10.661Z,102693.84
2022-12-18T18:20:41.048Z,102687.81
2022-12-18T18:23:10.390Z,102687.50
2022-12-18T18:25:38.467Z,102693.75
2022-12-18T18:28:06.586Z,102689.38
2022-12-18T18:30:34.656Z,102693.59
2022-12-18T18:33:04.649Z,102692.25
2022-12-18T18:35:53.780Z,102702.94
2022-12-18T18:38:22.476Z,102713.47
2022-12-18T18:40:50.445Z,102711.38
2022-12-18T18:43:19.583Z,102709.56
2022-12-18T18:45:50.443Z,102710.34
2022-12-18T18:48:18.836Z,102709.66
2022-12-18T18:50:57.549Z,102702.59
2022-12-18T18:53:25.513Z,102710.41
2022-12-18T18:56:26.158Z,102718.66
2022-12-18T18:58:41.955Z,102723.25
2022-12-18T19:01:13.087Z,102721.66
2022-12-18T19:03:41.473Z,102722.78
2022-12-18T19:06:15.200Z,102715.88
2022-12-18T19:08:44.289Z,102723.94
2022-12-18T19:11:26.681Z,102730.34
2022-12-18T19:13:56.363Z,102727.13
2022-12-18T19:16:27.793Z,102714.03
2022-12-18T19:19:01.407Z,102722.25
2022-12-18T19:21:34.273Z,102718.69
2022-12-18T19:24:03.498Z,102718.03
2022-12-18T19:26:31.740Z,102716.47
2022-12-18T19:29:02.545Z,102713.16
2022-12-18T19:31:35.228Z,102719.66
2022-12-18T19:34:05.121Z,102723.38
2022-12-18T19:36:36.144Z,102726.06
2022-12-18T19:39:10.288Z,102727.22
2022-12-18T19:41:38.419Z,102730.94
2022-12-18T19:44:08.246Z,102724.63
2022-12-18T19:46:41.660Z,102716.69
2022-12-18T19:49:10.375Z,102722.09
2022-12-18T19:51:42.543Z,102725.72
2022-12-18T19:54:16.184Z,102724.22
2022-12-18T19:56:45.063Z,102737.50
2022-12-18T19:59:13.140Z,102736.72
2022-12-18T20:01:41.383Z,102730.59
2022-12-18T20:04:09.574Z,102724.53
2022-12-18T20:06:49.373Z,102722.94
2022-12-18T20:09:18.173Z,102719.47
2022-12-18T20:11:47.204Z,102716.88
2022-12-18T20:14:19.688Z,102721.38
2022-12-18T20:16:51.386Z,102716.94
2022-12-18T20:19:19.761Z,102717.84
2022-12-18T20:21:50.016Z,102725.78
2022-12-18T20:24:18.013Z,102723.25
2022-12-18T20:26:46.215Z,102716.31
2022-12-18T20:29:14.100Z,102725.25
2022-12-18T20:31:42.290Z,102730.63
2022-12-18T20:34:10.388Z,102741.16
2022-12-18T20:36:38.834Z,102748.22
2022-12-18T20:39:10.983Z,102750.84
2022-12-18T20:41:40.331Z,102750.78
2022-12-18T20:44:21.934Z,102740.06
2022-12-18T20:46:53.752Z,102733.69
2022-12-18T20:49:22.174Z,102735.38
2022-12-18T20:51:53.527Z,102743.25
2022-12-18T20:54:24.169Z,102750.41
2022-12-18T20:56:52.246Z,102743.31
2022-12-18T20:59:20.341Z,102749.34
2022-12-18T21:01:49.503Z,102753.72
2022-12-18T21:04:18.667Z,102747.34
2022-12-18T21:06:51.458Z,102749.97
2022-12-18T21:09:22.621Z,102741.84
2022-12-18T21:12:08.935Z,102739.97
2022-12-18T21:14:40.370Z,102748.69
2022-12-18T21:17:08.451Z,102737.91
2022-12-18T21:19:36.835Z,102754.03
2022-12-18T21:22:05.585Z,102748.63
2022-12-18T21:24:35.098Z,102741.22
2022-12-18T21:27:03.616Z,102743.56
2022-12-18T21:29:31.774Z,102748.22
2022-12-18T21:32:00.729Z,102733.09
2022-12-18T21:34:30.967Z,102748.22
2022-12-18T21:37:01.254Z,102751.75
2022-12-18T21:39:30.675Z,102750.81
2022-12-18T21:42:17.589Z,102745.44
2022-12-18T21:44:48.046Z,102735.94
2022-12-18T21:47:23.036Z,102760.56
2022-12-18T21:49:53.103Z,102743.88
2022-12-18T21:52:27.259Z,102749.22
2022-12-18T21:55:06.568Z,102754.41
2022-12-18T21:57:39.225Z,102748.22
2022-12-18T22:00:08.862Z,102744.50
2022-12-18T22:02:43.044Z,102746.41
2022-12-18T22:05:11.217Z,102756.06
2022-12-18T22:07:39.865Z,102759.69
2022-12-18T22:10:09.118Z,102760.47
2022-12-18T22:12:44.172Z,102764.09
2022-12-18T22:15:21.320Z,102753.59
2022-12-18T22:17:50.214Z,102753.47
2022-12-18T22:20:18.229Z,102765.69
2022-12-18T22:22:48.227Z,102760.41
2022-12-18T22:25:16.251Z,102760.41
2022-12-18T22:28:06.035Z,102753.47
2022-12-18T22:30:33.211Z,102735.78
2022-12-18T22:33:01.766Z,102748.22
2022-12-18T22:35:29.744Z,102746.47
2022-12-18T22:37:59.387Z,102751.75
2022-12-18T22:40:27.871Z,102758.69
2022-12-18T22:42:57.760Z,102758.16
2022-12-18T22:45:26.599Z,102744.84
2022-12-18T22:47:54.798Z,102750.97
2022-12-18T22:50:22.887Z,102741.22
2022-12-18T22:52:50.872Z,102742.09
2022-12-18T22:55:18.863Z,102745.69
2022-12-18T22:57:49.033Z,102750.03
2022-12-18T23:00:23.907Z,102746.78
2022-12-18T23:02:59.488Z,102735.78
2022-12-18T23:05:30.004Z,102740.13
2022-12-18T23:07:58.054Z,102733.03
2022-12-18T23:10:26.273Z,102740.03
2022-12-18T23:12:54.309Z,102734.66
2022-12-18T23:15:28.175Z,102742.69
2022-12-18T23:17:58.709Z,102735.63
2022-12-18T23:20:27.126Z,102733.03
2022-12-18T23:22:55.160Z,102738.38
2022-12-18T23:25:23.109Z,102733.88
2022-12-18T23:27:51.136Z,102735.63
2022-12-18T23:30:19.275Z,102732.88
2022-12-18T23:32:48.639Z,102740.13
2022-12-18T23:35:16.496Z,102736.41
2022-12-18T23:38:00.919Z,102741.94
2022-12-18T23:40:30.428Z,102741.13
2022-12-18T23:42:58.154Z,102741.94
2022-12-18T23:45:26.136Z,102730.50
2022-12-18T23:47:55.422Z,102735.06
2022-12-18T23:50:29.060Z,102737.75
2022-12-18T23:53:04.997Z,102742.22
2022-12-18T23:55:38.517Z,102736.75
2022-12-18T23:58:06.620Z,102726.13
